sensor_id;sensor_type;location;lat;lon;timestamp;pressure;altitude;pressure_sealevel;temperature;humidity
50087;BME280;35967;50.718;7.050;2023-12-20T00:08:40;100701.22;;;6.91;100.00
50087;BME280;35967;50.718;7.050;2023-12-20T00:18:44;100702.94;;;6.89;100.00
50087;BME280;35967;50.718;7.050;2023-12-20T00:28:48;100711.47;;;6.88;100.00
50087;BME280;35967;50.718;7.050;2023-12-20T00:38:53;100708.94;;;6.85;100.00
50087;BME280;35967;50.718;7.050;2023-12-20T00:48:56;100712.34;;;6.86;100.00
50087;BME280;35967;50.718;7.050;2023-12-20T00:59:01;100721.75;;;6.82;100.00
50087;BME280;35967;50.718;7.050;2023-12-20T01:09:04;100721.75;;;6.84;100.00
50087;BME280;35967;50.718;7.050;2023-12-20T01:19:09;100737.91;;;6.87;100.00
50087;BME280;35967;50.718;7.050;2023-12-20T01:29:12;100740.50;;;6.89;100.00
50087;BME280;35967;50.718;7.050;2023-12-20T01:39:19;100740.44;;;6.93;100.00
50087;BME280;35967;50.718;7.050;2023-12-20T01:49:30;100764.41;;;6.75;100.00
50087;BME280;35967;50.718;7.050;2023-12-20T01:59:35;100763.59;;;6.70;100.00
50087;BME280;35967;50.718;7.050;2023-12-20T02:09:39;100784.09;;;6.64;100.00
50087;BME280;35967;50.718;7.050;2023-12-20T02:19:44;100800.31;;;6.51;100.00
50087;BME280;35967;50.718;7.050;2023-12-20T02:29:49;100814.03;;;6.09;100.00
50087;BME280;35967;50.718;7.050;2023-12-20T02:39:53;100804.66;;;5.80;100.00
50087;BME280;35967;50.718;7.050;2023-12-20T02:49:58;100829.34;;;5.60;100.00
50087;BME280;35967;50.718;7.050;2023-12-20T03:00:01;100827.63;;;5.52;100.00
50087;BME280;35967;50.718;7.050;2023-12-20T03:10:08;100837.00;;;5.44;100.00
50087;BME280;35967;50.718;7.050;2023-12-20T03:20:21;100837.84;;;5.48;100.00
50087;BME280;35967;50.718;7.050;2023-12-20T03:30:25;100847.22;;;5.55;100.00
50087;BME280;35967;50.718;7.050;2023-12-20T03:40:28;100825.94;;;5.68;100.00
50087;BME280;35967;50.718;7.050;2023-12-20T03:50:33;100826.81;;;5.75;100.00
50087;BME280;35967;50.718;7.050;2023-12-20T04:00:36;100835.31;;;5.73;100.00
50087;BME280;35967;50.718;7.050;2023-12-20T04:10:41;100830.22;;;5.74;100.00
50087;BME280;35967;50.718;7.050;2023-12-20T04:20:44;100846.38;;;5.79;100.00
50087;BME280;35967;50.718;7.050;2023-12-20T04:30:49;100833.63;;;5.82;100.00
50087;BME280;35967;50.718;7.050;2023-12-20T04:40:52;100840.41;;;5.80;100.00
50087;BME280;35967;50.718;7.050;2023-12-20T04:50:57;100835.31;;;5.79;100.00
50087;BME280;35967;50.718;7.050;2023-12-20T05:01:00;100859.16;;;5.87;100.00
50087;BME280;35967;50.718;7.050;2023-12-20T05:11:05;100840.44;;;5.68;100.00
50087;BME280;35967;50.718;7.050;2023-12-20T05:21:09;100846.34;;;5.59;100.00
50087;BME280;35967;50.718;7.050;2023-12-20T05:31:13;100829.34;;;5.55;100.00
50087;BME280;35967;50.718;7.050;2023-12-20T05:41:17;100834.44;;;5.58;100.00
50087;BME280;35967;50.718;7.050;2023-12-20T05:51:21;100839.53;;;5.43;100.00
50087;BME280;35967;50.718;7.050;2023-12-20T06:01:25;100842.91;;;5.42;100.00
50087;BME280;35967;50.718;7.050;2023-12-20T06:11:29;100844.66;;;5.44;100.00
50087;BME280;35967;50.718;7.050;2023-12-20T06:21:32;100864.22;;;5.42;100.00
50087;BME280;35967;50.718;7.050;2023-12-20T06:31:37;100851.47;;;5.51;100.00
50087;BME280;35967;50.718;7.050;2023-12-20T06:41:40;100854.88;;;5.61;100.00
50087;BME280;35967;50.718;7.050;2023-12-20T06:51:46;100862.56;;;5.71;100.00
50087;BME280;35967;50.718;7.050;2023-12-20T07:01:49;100853.22;;;5.83;100.00
50087;BME280;35967;50.718;7.050;2023-12-20T07:11:54;100861.72;;;5.90;100.00
50087;BME280;35967;50.718;7.050;2023-12-20T07:21:58;100882.16;;;5.95;100.00
50087;BME280;35967;50.718;7.050;2023-12-20T07:32:03;100889.81;;;5.84;100.00
50087;BME280;35967;50.718;7.050;2023-12-20T07:42:07;100885.53;;;5.77;100.00
50087;BME280;35967;50.718;7.050;2023-12-20T07:52:12;100866.81;;;5.84;100.00
50087;BME280;35967;50.718;7.050;2023-12-20T08:02:16;100862.56;;;5.86;100.00
50087;BME280;35967;50.718;7.050;2023-12-20T08:12:20;100877.06;;;5.93;100.00
50087;BME280;35967;50.718;7.050;2023-12-20T08:22:23;100880.44;;;5.98;100.00
50087;BME280;35967;50.718;7.050;2023-12-20T08:32:28;100879.66;;;6.07;100.00
50087;BME280;35967;50.718;7.050;2023-12-20T08:42:31;100871.97;;;6.04;100.00
50087;BME280;35967;50.718;7.050;2023-12-20T08:52:37;100881.34;;;6.05;100.00
50087;BME280;35967;50.718;7.050;2023-12-20T09:02:40;100877.06;;;6.21;100.00
50087;BME280;35967;50.718;7.050;2023-12-20T09:12:44;100890.72;;;6.36;100.00
50087;BME280;35967;50.718;7.050;2023-12-20T09:22:49;100877.09;;;6.32;100.00
50087;BME280;35967;50.718;7.050;2023-12-20T09:32:53;100875.34;;;6.42;100.00
50087;BME280;35967;50.718;7.050;2023-12-20T09:42:58;100889.81;;;6.46;100.00
50087;BME280;35967;50.718;7.050;2023-12-20T09:53:04;100874.50;;;6.57;100.00
50087;BME280;35967;50.718;7.050;2023-12-20T10:03:11;100876.16;;;6.58;100.00
50087;BME280;35967;50.718;7.050;2023-12-20T10:13:20;100870.22;;;6.53;100.00
50087;BME280;35967;50.718;7.050;2023-12-20T13:45:59;100693.75;;;6.56;100.00
50087;BME280;35967;50.718;7.050;2023-12-20T13:56:04;100688.72;;;6.40;100.00
50087;BME280;35967;50.718;7.050;2023-12-20T14:06:10;100682.78;;;6.29;100.00
50087;BME280;35967;50.718;7.050;2023-12-20T14:16:13;100660.56;;;6.39;100.00
50087;BME280;35967;50.718;7.050;2023-12-20T14:26:18;100635.88;;;6.41;100.00
50087;BME280;35967;50.718;7.050;2023-12-20T14:36:21;100640.16;;;6.34;100.00
50087;BME280;35967;50.718;7.050;2023-12-20T14:46:27;100637.53;;;6.43;100.00
50087;BME280;35967;50.718;7.050;2023-12-20T14:56:31;100654.56;;;6.46;100.00
50087;BME280;35967;50.718;7.050;2023-12-20T15:06:36;100640.91;;;6.52;100.00
50087;BME280;35967;50.718;7.050;2023-12-20T15:16:39;100644.31;;;6.51;100.00
50087;BME280;35967;50.718;7.050;2023-12-20T15:26:46;100624.72;;;6.53;100.00
50087;BME280;35967;50.718;7.050;2023-12-20T15:36:49;100644.25;;;6.61;100.00
50087;BME280;35967;50.718;7.050;2023-12-20T15:46:53;100644.25;;;6.68;100.00
50087;BME280;35967;50.718;7.050;2023-12-20T15:56:57;100626.31;;;6.72;100.00
50087;BME280;35967;50.718;7.050;2023-12-20T16:07:02;100623.75;;;6.72;100.00
50087;BME280;35967;50.718;7.050;2023-12-20T16:17:05;100625.44;;;6.73;100.00
50087;BME280;35967;50.718;7.050;2023-12-20T16:27:11;100608.31;;;6.82;100.00
50087;BME280;35967;50.718;7.050;2023-12-20T16:37:14;100610.06;;;6.73;100.00
50087;BME280;35967;50.718;7.050;2023-12-20T16:47:19;100603.19;;;6.82;100.00
50087;BME280;35967;50.718;7.050;2023-12-20T16:57:23;100592.19;;;6.75;100.00
50087;BME280;35967;50.718;7.050;2023-12-20T17:07:27;100590.50;;;6.72;100.00
50087;BME280;35967;50.718;7.050;2023-12-20T17:17:31;100587.91;;;6.75;100.00
50087;BME280;35967;50.718;7.050;2023-12-20T17:27:36;100587.00;;;6.84;100.00
50087;BME280;35967;50.718;7.050;2023-12-20T17:37:40;100569.84;;;6.94;100.00
50087;BME280;35967;50.718;7.050;2023-12-20T17:47:44;100556.09;;;7.06;100.00
50087;BME280;35967;50.718;7.050;2023-12-20T17:57:48;100544.06;;;7.14;100.00
50087;BME280;35967;50.718;7.050;2023-12-20T18:18:58;100514.03;;;7.32;100.00
50087;BME280;35967;50.718;7.050;2023-12-20T18:29:02;100511.34;;;7.42;100.00
50087;BME280;35967;50.718;7.050;2023-12-20T18:39:08;100502.72;;;7.50;100.00
50087;BME280;35967;50.718;7.050;2023-12-20T18:49:11;100497.53;;;7.56;100.00
50087;BME280;35967;50.718;7.050;2023-12-20T18:59:16;100460.75;;;7.58;100.00
50087;BME280;35967;50.718;7.050;2023-12-20T19:09:21;100452.13;;;7.66;100.00
50087;BME280;35967;50.718;7.050;2023-12-20T19:19:26;100453.78;;;7.71;100.00
50087;BME280;35967;50.718;7.050;2023-12-20T19:29:30;100450.34;;;7.72;100.00
50087;BME280;35967;50.718;7.050;2023-12-20T19:39:34;100429.75;;;7.79;100.00
50087;BME280;35967;50.718;7.050;2023-12-20T19:49:39;100408.25;;;7.89;100.00
50087;BME280;35967;50.718;7.050;2023-12-20T19:59:44;100409.81;;;7.99;100.00
50087;BME280;35967;50.718;7.050;2023-12-20T20:09:48;100385.03;;;8.00;100.00
50087;BME280;35967;50.718;7.050;2023-12-20T20:19:53;100348.94;;;8.12;100.00
50087;BME280;35967;50.718;7.050;2023-12-20T20:29:56;100336.84;;;8.19;100.00
50087;BME280;35967;50.718;7.050;2023-12-20T20:40:01;100323.13;;;8.23;100.00
50087;BME280;35967;50.718;7.050;2023-12-20T20:50:06;100314.50;;;8.26;100.00
50087;BME280;35967;50.718;7.050;2023-12-20T21:00:12;100294.75;;;8.32;99.95
50087;BME280;35967;50.718;7.050;2023-12-20T21:10:15;100308.28;;;8.39;100.00
50087;BME280;35967;50.718;7.050;2023-12-20T21:20:20;100308.16;;;8.45;99.02
50087;BME280;35967;50.718;7.050;2023-12-20T21:30:24;100293.66;;;8.44;100.00
50087;BME280;35967;50.718;7.050;2023-12-20T21:40:29;100263.66;;;8.49;100.00
50087;BME280;35967;50.718;7.050;2023-12-20T21:50:32;100263.66;;;8.49;100.00
50087;BME280;35967;50.718;7.050;2023-12-20T22:00:39;100251.72;;;8.48;100.00
50087;BME280;35967;50.718;7.050;2023-12-20T22:10:42;100238.06;;;8.45;100.00
50087;BME280;35967;50.718;7.050;2023-12-20T22:20:47;100223.53;;;8.47;100.00
50087;BME280;35967;50.718;7.050;2023-12-20T22:30:49;100213.28;;;8.47;100.00
50087;BME280;35967;50.718;7.050;2023-12-20T22:40:54;100206.34;;;8.50;100.00
50087;BME280;35967;50.718;7.050;2023-12-20T22:50:57;100203.69;;;8.55;100.00
50087;BME280;35967;50.718;7.050;2023-12-20T23:01:02;100211.69;;;8.40;100.00
50087;BME280;35967;50.718;7.050;2023-12-20T23:11:05;100207.69;;;8.25;100.00
50087;BME280;35967;50.718;7.050;2023-12-20T23:21:09;100185.66;;;8.14;100.00
50087;BME280;35967;50.718;7.050;2023-12-20T23:31:21;100172.97;;;8.08;100.00
50087;BME280;35967;50.718;7.050;2023-12-20T23:41:26;100152.56;;;8.03;100.00
50087;BME280;35967;50.718;7.050;2023-12-20T23:51:30;100120.78;;;8.12;100.00
